Terminal Aerodrome Forecast
Issued by NWS

Home | Current Version | Previous Version | Text Only | Print | Product List | Glossary On
Versions: 1 2 3 4 5 6 7 8 9 10 11 12 13 14 15 16 17
000
FTUS43 KGRB 250900 AAA
TAFAUW
TAF AMD
KAUW 250917Z 2509/2606 17003KT P6SM VCSH SCT060 BKN120
      WS010/23030KT
      TEMPO 2509/2513 5SM -TSRA BKN060CB
     FM251400 18009G17KT P6SM VCSH SCT040 BKN090
     FM252200 19011KT P6SM VCSH SCT035 BKN070
      TEMPO 2522/2602 6SM SHRA BKN035
     FM260200 19003KT 5SM -SHRA BR SCT018 BKN030=

USA.gov is the U.S. government's official web portal to all federal, state and local government web resources and services.